Terminal Aerodrome Forecast
Issued by NWS

Home | Current Version | Previous Version | Graphics & Text | Print | Product List | Glossary On
Versions: 1 2 3 4 5 6 7 8 9 10 11 12 13 14 15 16 17 18 19 20
868
FTUS43 KIWX 261826 AAA
TAFSBN
TAF AMD
KSBN 261826Z 2618/2718 18007KT P6SM SHRA SCT009 OVC020
      TEMPO 2618/2620 3SM -SHRA BR BKN009 OVC020
     FM262100 20008KT P6SM VCSH OVC025
     FM270300 23006KT P6SM OVC008
     FM270900 24005KT 1SM BR OVC003
     FM271500 25004KT P6SM OVC003=

USA.gov is the U.S. government's official web portal to all federal, state and local government web resources and services.